createdAt,value
2019-02-25T00:00:40.239Z,1025.48
2019-02-25T00:01:40.224Z,1025.48
2019-02-25T00:02:40.217Z,1025.49
2019-02-25T00:03:40.265Z,1025.49
2019-02-25T00:04:40.195Z,1025.45
2019-02-25T00:05:40.183Z,1025.48
2019-02-25T00:06:40.173Z,1025.42
2019-02-25T00:07:40.167Z,1025.45
2019-02-25T00:08:40.157Z,1025.45
2019-02-25T00:09:40.158Z,1025.45
2019-02-25T00:10:40.130Z,1025.43
2019-02-25T00:11:40.115Z,1025.41
2019-02-25T00:12:40.107Z,1025.49
2019-02-25T00:13:40.095Z,1025.42
2019-02-25T00:14:40.128Z,1025.47
2019-02-25T00:15:40.073Z,1025.45
2019-02-25T00:16:40.063Z,1025.47
2019-02-25T00:17:40.056Z,1025.44
2019-02-25T00:18:40.040Z,1025.41
2019-02-25T00:19:40.030Z,1025.42
2019-02-25T00:20:40.059Z,1025.42
2019-02-25T00:21:40.010Z,1025.40
2019-02-25T00:22:39.999Z,1025.37
2019-02-25T00:23:39.984Z,1025.37
2019-02-25T00:24:39.977Z,1025.38
2019-02-25T00:25:39.988Z,1025.38
2019-02-25T00:26:39.953Z,1025.38
2019-02-25T00:27:39.942Z,1025.33
2019-02-25T00:28:39.931Z,1025.34
2019-02-25T00:29:39.920Z,1025.34
2019-02-25T00:30:39.949Z,1025.30
2019-02-25T00:31:39.941Z,1025.33
2019-02-25T00:32:39.891Z,1025.34
2019-02-25T00:33:39.875Z,1025.33
2019-02-25T00:34:39.865Z,1025.32
2019-02-25T00:35:39.857Z,1025.31
2019-02-25T00:36:39.888Z,1025.28
2019-02-25T00:37:39.834Z,1025.26
2019-02-25T00:38:39.823Z,1025.22
2019-02-25T00:39:39.811Z,1025.32
2019-02-25T00:40:39.807Z,1025.31
2019-02-25T00:41:39.792Z,1025.28
2019-02-25T00:42:39.818Z,1025.29
2019-02-25T00:43:39.775Z,1025.28
2019-02-25T00:44:39.765Z,1025.34
2019-02-25T00:45:39.783Z,1025.32
2019-02-25T00:46:39.739Z,1025.33
2019-02-25T00:47:39.811Z,1025.35
2019-02-25T00:48:39.721Z,1025.32
2019-02-25T00:49:39.702Z,1025.30
2019-02-25T00:50:39.705Z,1025.21
2019-02-25T00:51:39.683Z,1025.28
2019-02-25T00:52:39.675Z,1025.28
2019-02-25T00:53:39.679Z,1025.31
2019-02-25T00:54:39.650Z,1025.32
2019-02-25T00:55:39.638Z,1025.34
2019-02-25T00:56:39.626Z,1025.31
2019-02-25T00:57:39.614Z,1025.27
2019-02-25T00:58:39.663Z,1025.22
2019-02-25T00:59:39.592Z,1025.24
2019-02-25T01:00:39.584Z,1025.23
2019-02-25T01:01:39.571Z,1025.21
2019-02-25T01:02:39.563Z,1025.20
2019-02-25T01:03:39.560Z,1025.22
2019-02-25T01:04:39.605Z,1025.22
2019-02-25T01:05:39.535Z,1025.29
2019-02-25T01:06:39.523Z,1025.29
2019-02-25T01:07:39.510Z,1025.30
2019-02-25T01:08:39.495Z,1025.27
2019-02-25T01:09:39.485Z,1025.26
2019-02-25T01:10:39.535Z,1025.29
2019-02-25T01:11:39.465Z,1025.25
2019-02-25T01:12:39.452Z,1025.18
2019-02-25T01:13:39.444Z,1025.23
2019-02-25T01:14:39.432Z,1025.23
2019-02-25T01:15:39.487Z,1025.23
2019-02-25T01:16:39.412Z,1025.25
2019-02-25T01:17:39.397Z,1025.21
2019-02-25T01:18:39.386Z,1025.23
2019-02-25T01:19:39.380Z,1025.27
2019-02-25T01:20:39.364Z,1025.22
2019-02-25T01:21:39.385Z,1025.23
2019-02-25T01:22:39.388Z,1025.32
2019-02-25T01:23:39.332Z,1025.28
2019-02-25T01:24:39.322Z,1025.32
2019-02-25T01:25:39.309Z,1025.27
2019-02-25T01:26:39.307Z,1025.34
2019-02-25T01:27:39.292Z,1025.30
2019-02-25T01:28:39.318Z,1025.30
2019-02-25T01:29:39.269Z,1025.26
2019-02-25T01:30:39.262Z,1025.27
2019-02-25T01:31:39.249Z,1025.25
2019-02-25T01:32:39.233Z,1025.28
2019-02-25T01:33:39.246Z,1025.30
2019-02-25T01:34:39.219Z,1025.29
2019-02-25T01:35:39.201Z,1025.24
2019-02-25T01:36:39.197Z,1025.23
2019-02-25T01:37:39.180Z,1025.19
2019-02-25T01:38:39.212Z,1025.18
2019-02-25T01:39:39.168Z,1025.20
2019-02-25T01:40:39.149Z,1025.18
2019-02-25T01:41:39.201Z,1025.16
2019-02-25T01:42:39.127Z,1025.17
2019-02-25T01:43:39.119Z,1025.13
2019-02-25T01:44:39.107Z,1025.06
2019-02-25T01:45:39.105Z,1025.08
2019-02-25T01:46:39.085Z,1025.04
2019-02-25T01:47:39.115Z,1025.03
2019-02-25T01:48:39.089Z,1025.05
2019-02-25T01:49:39.053Z,1025.05
2019-02-25T01:50:39.039Z,1025.07
2019-02-25T01:51:39.031Z,1025.09
2019-02-25T01:52:39.020Z,1025.07
2019-02-25T01:53:39.073Z,1025.07
2019-02-25T01:54:38.995Z,1025.06
2019-02-25T01:55:38.985Z,1025.03
2019-02-25T01:56:38.977Z,1025.07
2019-02-25T01:57:38.962Z,1025.06
2019-02-25T01:58:38.953Z,1025.04
2019-02-25T01:59:38.997Z,1025.05
2019-02-25T02:00:38.933Z,1024.99
2019-02-25T02:01:38.923Z,1024.98
2019-02-25T02:02:38.909Z,1025.00
2019-02-25T02:03:38.897Z,1024.95
2019-02-25T02:04:38.889Z,1024.94
2019-02-25T02:05:38.921Z,1024.99
2019-02-25T02:06:38.867Z,1024.97
2019-02-25T02:07:38.854Z,1025.03
2019-02-25T02:08:38.850Z,1025.05
2019-02-25T02:09:38.832Z,1025.02
2019-02-25T02:10:38.884Z,1025.04
2019-02-25T02:11:38.814Z,1025.05
2019-02-25T02:12:38.801Z,1025.06
2019-02-25T02:13:38.789Z,1025.08
2019-02-25T02:14:38.784Z,1025.08
2019-02-25T02:15:38.777Z,1025.11
2019-02-25T02:16:38.821Z,1025.06
2019-02-25T02:17:38.747Z,1025.07
2019-02-25T02:18:38.748Z,1025.08
2019-02-25T02:19:38.725Z,1025.06
2019-02-25T02:20:38.716Z,1025.03
2019-02-25T02:21:38.710Z,1025.07
2019-02-25T02:22:38.751Z,1025.04
2019-02-25T02:23:38.683Z,1025.06
2019-02-25T02:24:38.676Z,1025.07
2019-02-25T02:25:38.663Z,1025.00
2019-02-25T02:26:38.662Z,1025.01
2019-02-25T02:27:38.645Z,1024.99
2019-02-25T02:28:38.668Z,1025.00
2019-02-25T02:29:38.623Z,1025.00
2019-02-25T02:30:38.607Z,1024.98
2019-02-25T02:31:38.606Z,1024.98
2019-02-25T02:32:38.617Z,1024.98
2019-02-25T02:33:38.577Z,1024.96
2019-02-25T02:34:38.566Z,1024.92
2019-02-25T02:35:38.557Z,1024.94
2019-02-25T02:36:38.547Z,1024.94
2019-02-25T02:37:38.592Z,1024.91
2019-02-25T02:38:38.523Z,1024.94
2019-02-25T02:39:38.515Z,1025.04
2019-02-25T02:40:38.501Z,1025.02
2019-02-25T02:41:38.492Z,1025.00
2019-02-25T02:42:38.487Z,1025.02
2019-02-25T02:43:38.543Z,1025.02
2019-02-25T02:44:38.459Z,1025.00
2019-02-25T02:45:38.450Z,1025.01
2019-02-25T02:46:38.437Z,1025.06
2019-02-25T02:47:38.423Z,1025.05
2019-02-25T02:48:38.415Z,1025.02
2019-02-25T02:49:38.465Z,1024.98
2019-02-25T02:50:38.402Z,1024.98
2019-02-25T02:51:38.379Z,1025.02
2019-02-25T02:52:38.369Z,1024.94
2019-02-25T02:53:38.360Z,1024.93
2019-02-25T02:54:38.357Z,1024.96
2019-02-25T02:55:38.378Z,1025.01
2019-02-25T02:56:38.328Z,1025.01
2019-02-25T02:57:38.318Z,1025.01
2019-02-25T02:58:38.309Z,1025.04
2019-02-25T02:59:38.295Z,1025.02
2019-02-25T03:00:38.327Z,1024.98
2019-02-25T03:01:38.278Z,1024.99
2019-02-25T03:02:38.261Z,1024.93
2019-02-25T03:03:38.255Z,1024.96
2019-02-25T03:04:38.245Z,1024.97
2019-02-25T03:05:38.273Z,1024.94
2019-02-25T03:06:38.220Z,1024.95
2019-02-25T03:07:38.206Z,1024.90
2019-02-25T03:08:38.205Z,1024.88
2019-02-25T03:09:38.186Z,1024.88
2019-02-25T03:10:38.185Z,1024.85
2019-02-25T03:11:38.214Z,1024.86
2019-02-25T03:12:38.154Z,1024.83
2019-02-25T03:13:38.146Z,1024.84
2019-02-25T03:14:38.138Z,1024.83
2019-02-25T03:15:38.125Z,1024.89
2019-02-25T03:16:38.112Z,1024.91
2019-02-25T03:17:38.161Z,1024.86
2019-02-25T03:18:38.091Z,1024.95
2019-02-25T03:19:38.083Z,1024.94
2019-02-25T03:20:38.067Z,1024.95
2019-02-25T03:21:38.060Z,1024.89
2019-02-25T03:22:38.054Z,1024.89
2019-02-25T03:23:38.076Z,1024.89
2019-02-25T03:24:38.023Z,1024.89
2019-02-25T03:25:38.013Z,1024.95
2019-02-25T03:26:38.003Z,1024.97
2019-02-25T03:27:37.996Z,1024.93
2019-02-25T03:28:38.021Z,1024.96
2019-02-25T03:29:37.972Z,1025.00
2019-02-25T03:30:37.969Z,1025.01
2019-02-25T03:31:37.969Z,1024.98
2019-02-25T03:32:37.941Z,1024.95
2019-02-25T03:33:37.971Z,1024.99
2019-02-25T03:34:37.943Z,1024.99
2019-02-25T03:35:37.904Z,1025.00
2019-02-25T03:36:37.893Z,1024.96
2019-02-25T03:37:37.886Z,1025.05
2019-02-25T03:38:37.917Z,1025.04
2019-02-25T03:39:37.929Z,1025.05
2019-02-25T03:40:37.853Z,1025.07
2019-02-25T03:41:37.841Z,1025.06
2019-02-25T03:42:37.852Z,1025.09
2019-02-25T03:43:37.823Z,1025.13
2019-02-25T03:44:37.814Z,1025.12
2019-02-25T03:45:37.832Z,1025.12
2019-02-25T03:46:37.832Z,1025.13
2019-02-25T03:47:37.777Z,1025.12
2019-02-25T03:48:37.766Z,1025.18
2019-02-25T03:49:37.755Z,1025.13
2019-02-25T03:50:37.754Z,1025.13
2019-02-25T03:51:37.792Z,1025.16
2019-02-25T03:52:37.729Z,1025.15
2019-02-25T03:53:37.711Z,1025.13
2019-02-25T03:54:37.700Z,1025.17
2019-02-25T03:55:37.691Z,1025.12
2019-02-25T03:56:37.678Z,1025.13
2019-02-25T03:57:37.728Z,1025.14
2019-02-25T03:58:37.656Z,1025.15
2019-02-25T03:59:37.647Z,1025.12
2019-02-25T04:00:37.635Z,1025.18
2019-02-25T04:01:37.627Z,1025.17
2019-02-25T04:02:37.617Z,1025.15
2019-02-25T04:03:37.643Z,1025.11
2019-02-25T04:04:37.632Z,1025.13
2019-02-25T04:05:37.587Z,1025.16
2019-02-25T04:06:37.569Z,1025.11
2019-02-25T04:07:37.561Z,1025.11
2019-02-25T04:08:37.590Z,1025.17
2019-02-25T04:09:37.561Z,1025.15
2019-02-25T04:10:37.569Z,1025.14
2019-02-25T04:11:37.524Z,1025.16
2019-02-25T04:12:37.505Z,1025.17
2019-02-25T04:13:37.520Z,1025.13
2019-02-25T04:14:37.484Z,1025.14
2019-02-25T04:15:37.511Z,1025.12
2019-02-25T04:16:37.467Z,1025.12
2019-02-25T04:17:37.454Z,1025.10
2019-02-25T04:18:37.442Z,1025.06
2019-02-25T04:19:37.473Z,1025.10
2019-02-25T04:20:37.444Z,1025.08
2019-02-25T04:21:37.409Z,1025.02
2019-02-25T04:22:37.397Z,1025.02
2019-02-25T04:23:37.388Z,1025.04
2019-02-25T04:24:37.423Z,1025.05
2019-02-25T04:25:37.374Z,1025.03
2019-02-25T04:26:37.400Z,1025.10
2019-02-25T04:27:37.375Z,1025.13
2019-02-25T04:28:37.333Z,1025.16
2019-02-25T04:29:37.339Z,1025.12
2019-02-25T04:30:37.311Z,1025.13
2019-02-25T04:31:37.301Z,1025.13
2019-02-25T04:32:37.320Z,1025.13
2019-02-25T04:33:37.283Z,1025.11
2019-02-25T04:34:37.316Z,1025.11
2019-02-25T04:35:37.267Z,1025.04
2019-02-25T04:36:37.248Z,1025.07
2019-02-25T04:37:37.238Z,1025.10
2019-02-25T04:38:37.227Z,1025.07
2019-02-25T04:39:37.214Z,1025.09
2019-02-25T04:40:37.244Z,1025.10
2019-02-25T04:41:37.194Z,1025.14
2019-02-25T04:42:37.184Z,1025.13
2019-02-25T04:43:37.197Z,1025.17
2019-02-25T04:44:37.160Z,1025.14
2019-02-25T04:45:37.154Z,1025.14
2019-02-25T04:46:37.144Z,1025.17
2019-02-25T04:47:37.132Z,1025.20
2019-02-25T04:48:37.162Z,1025.23
2019-02-25T04:49:37.106Z,1025.22
2019-02-25T04:50:37.119Z,1025.26
2019-02-25T04:51:37.095Z,1025.27
2019-02-25T04:52:37.075Z,1025.29
2019-02-25T04:53:37.074Z,1025.29
2019-02-25T04:54:37.105Z,1025.32
2019-02-25T04:55:37.044Z,1025.29
2019-02-25T04:56:37.035Z,1025.28
2019-02-25T04:57:37.022Z,1025.32
2019-02-25T04:58:44.050Z,1025.26
2019-02-25T04:59:37.004Z,1025.27
2019-02-25T05:00:37.033Z,1025.26
2019-02-25T05:01:36.979Z,1025.21
2019-02-25T05:02:36.969Z,1025.24
2019-02-25T05:03:36.958Z,1025.19
2019-02-25T05:04:36.944Z,1025.23
2019-02-25T05:05:36.943Z,1025.19
2019-02-25T05:06:36.954Z,1025.25
2019-02-25T05:07:36.911Z,1025.25
2019-02-25T05:08:36.902Z,1025.26
2019-02-25T05:09:36.893Z,1025.26
2019-02-25T05:10:36.921Z,1025.26
2019-02-25T05:11:36.875Z,1025.27
2019-02-25T05:12:36.862Z,1025.28
2019-02-25T05:13:36.846Z,1025.28
2019-02-25T05:14:36.871Z,1025.27
2019-02-25T05:15:36.831Z,1025.29
2019-02-25T05:16:36.815Z,1025.26
2019-02-25T05:17:36.808Z,1025.28
2019-02-25T05:18:36.796Z,1025.26
2019-02-25T05:19:36.783Z,1025.21
2019-02-25T05:20:36.813Z,1025.21
2019-02-25T05:21:36.772Z,1025.20
2019-02-25T05:22:37.578Z,1025.19
2019-02-25T05:23:36.741Z,1025.15
2019-02-25T05:24:36.726Z,1025.16
2019-02-25T05:25:36.732Z,1025.16
2019-02-25T05:26:36.705Z,1025.18
2019-02-25T05:27:36.694Z,1025.21
2019-02-25T05:28:36.686Z,1025.29
2019-02-25T05:29:36.681Z,1025.18
2019-02-25T05:30:36.686Z,1025.24
2019-02-25T05:31:36.654Z,1025.21
2019-02-25T05:32:36.657Z,1025.20
2019-02-25T05:33:36.639Z,1025.20
2019-02-25T05:34:36.619Z,1025.19
2019-02-25T05:35:36.609Z,1025.20
2019-02-25T05:36:36.629Z,1025.19
2019-02-25T05:37:36.584Z,1025.19
2019-02-25T05:38:36.581Z,1025.20
2019-02-25T05:39:36.567Z,1025.22
2019-02-25T05:40:36.577Z,1025.23
2019-02-25T05:41:36.552Z,1025.24
2019-02-25T05:42:36.538Z,1025.28
2019-02-25T05:43:36.554Z,1025.25
2019-02-25T05:44:36.512Z,1025.28
2019-02-25T05:45:36.501Z,1025.26
2019-02-25T05:46:36.507Z,1025.29
2019-02-25T05:47:36.477Z,1025.29
2019-02-25T05:48:36.469Z,1025.25
2019-02-25T05:49:36.455Z,1025.26
2019-02-25T05:50:36.480Z,1025.29
2019-02-25T05:51:36.442Z,1025.28
2019-02-25T05:52:36.423Z,1025.28
2019-02-25T05:53:36.415Z,1025.29
2019-02-25T05:54:36.424Z,1025.26
2019-02-25T05:55:36.390Z,1025.24
2019-02-25T05:56:36.398Z,1025.24
2019-02-25T05:57:36.386Z,1025.25
2019-02-25T05:58:36.358Z,1025.27
2019-02-25T05:59:36.355Z,1025.24
2019-02-25T06:00:36.339Z,1025.25
2019-02-25T06:01:36.336Z,1025.26
2019-02-25T06:02:36.333Z,1025.29
2019-02-25T06:03:36.315Z,1025.32
2019-02-25T06:04:36.296Z,1025.30
2019-02-25T06:05:36.282Z,1025.29
2019-02-25T06:06:36.276Z,1025.29
2019-02-25T06:07:36.274Z,1025.28
2019-02-25T06:08:36.262Z,1025.26
2019-02-25T06:09:36.256Z,1025.27
2019-02-25T06:10:36.230Z,1025.34
2019-02-25T06:11:36.221Z,1025.36
2019-02-25T06:12:36.206Z,1025.34
2019-02-25T06:13:36.206Z,1025.35
2019-02-25T06:14:36.197Z,1025.31
2019-02-25T06:15:36.174Z,1025.27
2019-02-25T06:16:36.164Z,1025.26
2019-02-25T06:17:36.151Z,1025.21
2019-02-25T06:18:36.146Z,1025.22
2019-02-25T06:19:36.148Z,1025.18
2019-02-25T06:20:36.118Z,1025.19
2019-02-25T06:21:36.109Z,1025.18
2019-02-25T06:22:36.107Z,1025.14
2019-02-25T06:23:36.088Z,1025.19
2019-02-25T06:24:36.078Z,1025.17
2019-02-25T06:25:36.097Z,1025.19
2019-02-25T06:26:36.057Z,1025.20
2019-02-25T06:27:36.045Z,1025.25
2019-02-25T06:28:36.034Z,1025.25
2019-02-25T06:29:36.022Z,1025.25
2019-02-25T06:30:36.011Z,1025.26
2019-02-25T06:31:36.022Z,1025.28
2019-02-25T06:32:35.998Z,1025.25
2019-02-25T06:33:35.986Z,1025.26
2019-02-25T06:34:35.978Z,1025.22
2019-02-25T06:35:35.956Z,1025.24
2019-02-25T06:36:35.953Z,1025.29
2019-02-25T06:37:35.950Z,1025.28
2019-02-25T06:38:35.923Z,1025.31
2019-02-25T06:39:35.915Z,1025.33
2019-02-25T06:40:35.903Z,1025.38
2019-02-25T06:41:35.903Z,1025.42
2019-02-25T06:42:35.894Z,1025.45
2019-02-25T06:43:35.870Z,1025.39
2019-02-25T06:44:35.862Z,1025.38
2019-02-25T06:45:35.848Z,1025.33
2019-02-25T06:46:35.850Z,1025.32
2019-02-25T06:47:35.826Z,1025.32
2019-02-25T06:48:35.816Z,1025.31
2019-02-25T06:49:35.813Z,1025.29
2019-02-25T06:50:35.795Z,1025.34
